createdAt,value
2023-01-27T00:00:50.769Z,13.10
2023-01-27T00:03:19.108Z,12.97
2023-01-27T00:05:47.177Z,12.00
2023-01-27T00:08:27.981Z,12.70
2023-01-27T00:11:14.393Z,11.43
2023-01-27T00:13:41.851Z,13.80
2023-01-27T00:16:09.389Z,13.13
2023-01-27T00:18:36.890Z,13.07
2023-01-27T00:21:22.739Z,13.57
2023-01-27T00:24:08.296Z,12.87
2023-01-27T00:26:37.157Z,14.63
2023-01-27T00:29:04.620Z,15.17
2023-01-27T00:31:49.495Z,14.23
2023-01-27T00:34:17.007Z,14.57
2023-01-27T00:36:44.594Z,15.00
2023-01-27T00:39:13.069Z,14.27
2023-01-27T00:41:41.953Z,15.00
2023-01-27T00:44:12.962Z,14.00
2023-01-27T00:46:40.747Z,14.30
2023-01-27T00:49:08.532Z,14.57
2023-01-27T00:51:36.867Z,13.70
2023-01-27T00:54:05.073Z,15.07
2023-01-27T00:56:32.948Z,14.20
2023-01-27T00:59:01.991Z,15.17
2023-01-27T01:01:29.576Z,13.63
2023-01-27T01:03:58.736Z,15.57
2023-01-27T01:06:26.622Z,16.10
2023-01-27T01:08:54.395Z,15.47
2023-01-27T01:11:22.383Z,14.43
2023-01-27T01:13:50.397Z,14.37
2023-01-27T01:16:20.726Z,15.73
2023-01-27T01:18:49.147Z,15.03
2023-01-27T01:21:16.977Z,14.87
2023-01-27T01:23:46.405Z,15.33
2023-01-27T01:26:16.058Z,16.37
2023-01-27T01:28:44.645Z,14.30
2023-01-27T01:31:13.640Z,16.17
2023-01-27T01:33:42.489Z,16.27
2023-01-27T01:36:12.633Z,14.70
2023-01-27T01:38:40.458Z,16.53
2023-01-27T01:41:09.384Z,15.53
2023-01-27T01:43:36.897Z,18.03
2023-01-27T01:46:04.906Z,15.30
2023-01-27T01:48:35.936Z,15.50
2023-01-27T01:51:10.720Z,15.63
2023-01-27T01:53:42.826Z,16.67
2023-01-27T01:56:15.474Z,16.87
2023-01-27T01:58:45.807Z,15.77
2023-01-27T02:01:15.959Z,15.90
2023-01-27T02:03:48.227Z,17.70
2023-01-27T02:06:17.244Z,17.27
2023-01-27T02:08:47.157Z,17.80
2023-01-27T02:11:14.649Z,18.03
2023-01-27T02:13:43.511Z,17.27
2023-01-27T02:16:12.317Z,17.53
2023-01-27T02:18:41.629Z,18.83
2023-01-27T02:21:09.577Z,17.07
2023-01-27T02:23:54.363Z,18.40
2023-01-27T02:26:26.521Z,18.93
2023-01-27T02:28:56.896Z,18.13
2023-01-27T02:31:25.343Z,17.50
2023-01-27T02:33:58.945Z,17.87
2023-01-27T02:36:28.500Z,18.57
2023-01-27T02:38:57.716Z,17.13
2023-01-27T02:41:30.255Z,21.40
2023-01-27T02:43:57.793Z,33.23
2023-01-27T02:46:25.389Z,35.27
2023-01-27T02:48:53.547Z,28.40
2023-01-27T02:51:21.276Z,20.23
2023-01-27T02:53:48.771Z,18.43
2023-01-27T02:56:16.265Z,20.27
2023-01-27T02:58:45.179Z,27.23
2023-01-27T03:01:12.726Z,23.67
2023-01-27T03:03:46.828Z,31.63
2023-01-27T03:06:14.847Z,23.73
2023-01-27T03:08:42.958Z,28.43
2023-01-27T03:11:11.087Z,20.57
2023-01-27T03:13:38.918Z,21.87
2023-01-27T03:16:25.600Z,18.50
2023-01-27T03:18:56.378Z,18.43
2023-01-27T03:21:23.916Z,18.77
2023-01-27T03:23:51.526Z,18.87
2023-01-27T03:26:19.049Z,19.40
2023-01-27T03:29:06.555Z,21.13
2023-01-27T03:31:35.466Z,20.53
2023-01-27T03:34:02.982Z,22.70
2023-01-27T03:36:48.229Z,19.33
2023-01-27T03:39:33.589Z,21.30
2023-01-27T03:42:18.573Z,18.63
2023-01-27T03:45:03.428Z,19.10
2023-01-27T03:47:32.727Z,19.80
2023-01-27T03:50:00.221Z,19.57
2023-01-27T03:52:27.710Z,18.47
2023-01-27T03:54:55.161Z,17.67
2023-01-27T03:57:22.633Z,18.27
2023-01-27T03:59:50.101Z,21.60
2023-01-27T04:02:35.171Z,19.33
2023-01-27T04:05:21.752Z,20.20
2023-01-27T04:07:49.231Z,17.90
2023-01-27T04:10:17.331Z,20.77
2023-01-27T04:12:43.863Z,18.93
2023-01-27T04:15:11.923Z,19.60
2023-01-27T04:17:41.903Z,19.40
2023-01-27T04:20:14.155Z,19.67
2023-01-27T04:22:41.635Z,18.97
2023-01-27T04:25:11.082Z,22.17
2023-01-27T04:27:39.776Z,20.63
2023-01-27T04:30:08.863Z,21.10
2023-01-27T04:32:36.354Z,20.93
2023-01-27T04:35:03.876Z,20.27
2023-01-27T04:37:32.967Z,31.07
2023-01-27T04:40:00.464Z,25.53
2023-01-27T04:42:28.099Z,24.10
2023-01-27T04:44:55.578Z,21.90
2023-01-27T04:47:23.061Z,20.20
2023-01-27T04:49:50.652Z,20.13
2023-01-27T04:52:18.131Z,21.27
2023-01-27T04:54:46.932Z,21.17
2023-01-27T04:57:14.493Z,20.63
2023-01-27T04:59:41.970Z,19.50
2023-01-27T05:02:09.597Z,19.30
2023-01-27T05:04:37.096Z,21.93
2023-01-27T05:07:05.915Z,21.60
2023-01-27T05:09:33.373Z,21.90
2023-01-27T05:12:02.182Z,19.20
2023-01-27T05:14:29.641Z,19.27
2023-01-27T05:16:57.141Z,20.97
2023-01-27T05:19:24.740Z,18.63
2023-01-27T05:21:52.202Z,20.80
2023-01-27T05:24:19.683Z,21.60
2023-01-27T05:26:47.342Z,21.47
2023-01-27T05:29:16.184Z,21.37
2023-01-27T05:31:43.669Z,22.07
2023-01-27T05:34:11.293Z,17.13
2023-01-27T05:36:38.787Z,20.23
2023-01-27T05:39:08.799Z,20.53
2023-01-27T05:41:36.502Z,16.87
2023-01-27T05:44:04.147Z,21.17
2023-01-27T05:46:33.793Z,16.63
2023-01-27T05:49:04.168Z,21.23
2023-01-27T05:51:34.112Z,20.10
2023-01-27T05:54:01.846Z,17.07
2023-01-27T05:56:29.376Z,23.80
2023-01-27T05:58:58.231Z,15.23
2023-01-27T06:01:28.547Z,18.53
2023-01-27T06:03:57.957Z,19.67
2023-01-27T06:06:27.345Z,20.80
2023-01-27T06:08:55.340Z,18.77
2023-01-27T06:11:24.320Z,19.47
2023-01-27T06:13:53.119Z,19.07
2023-01-27T06:16:22.502Z,18.63
2023-01-27T06:18:50.284Z,21.17
2023-01-27T06:21:20.809Z,20.07
2023-01-27T06:23:48.593Z,24.80
2023-01-27T06:26:18.694Z,20.03
2023-01-27T06:28:46.503Z,18.30
2023-01-27T06:31:16.842Z,18.20
2023-01-27T06:33:44.789Z,17.10
2023-01-27T06:36:13.770Z,18.50
2023-01-27T06:38:42.906Z,18.27
2023-01-27T06:41:10.668Z,18.73
2023-01-27T06:43:38.213Z,19.03
2023-01-27T06:46:06.371Z,18.40
2023-01-27T06:48:34.565Z,18.30
2023-01-27T06:51:02.118Z,15.67
2023-01-27T06:53:29.645Z,17.50
2023-01-27T06:56:00.056Z,17.80
2023-01-27T06:58:27.761Z,18.60
2023-01-27T07:00:55.516Z,18.57
2023-01-27T07:03:23.257Z,16.30
2023-01-27T07:05:50.949Z,15.97
2023-01-27T07:08:18.400Z,17.63
2023-01-27T07:10:45.849Z,17.87
2023-01-27T07:13:15.862Z,16.60
2023-01-27T07:15:43.777Z,17.90
2023-01-27T07:18:12.202Z,17.00
2023-01-27T07:20:39.740Z,15.07
2023-01-27T07:23:07.315Z,17.73
2023-01-27T07:25:35.855Z,17.17
2023-01-27T07:28:03.894Z,16.37
2023-01-27T07:30:34.294Z,16.27
2023-01-27T07:33:04.952Z,19.53
2023-01-27T07:35:32.618Z,16.03
2023-01-27T07:38:00.277Z,18.13
2023-01-27T07:40:27.719Z,18.17
2023-01-27T07:42:58.551Z,21.17
2023-01-27T07:45:26.455Z,17.23
2023-01-27T07:47:55.315Z,23.50
2023-01-27T07:50:22.747Z,18.43
2023-01-27T07:52:50.189Z,21.43
2023-01-27T07:55:17.817Z,19.80
2023-01-27T07:57:45.264Z,20.77
2023-01-27T08:00:15.454Z,31.13
2023-01-27T08:02:43.057Z,29.80
2023-01-27T08:05:11.860Z,44.30
2023-01-27T08:07:39.305Z,49.20
2023-01-27T08:10:07.049Z,28.63
2023-01-27T08:12:34.505Z,30.33
2023-01-27T08:15:01.968Z,29.80
2023-01-27T08:17:29.444Z,43.93
2023-01-27T08:19:56.896Z,43.47
2023-01-27T08:22:25.735Z,46.13
2023-01-27T08:24:53.207Z,37.80
2023-01-27T08:27:20.701Z,39.20
2023-01-27T08:29:48.215Z,51.77
2023-01-27T08:32:15.776Z,49.17
2023-01-27T08:34:43.232Z,65.13
2023-01-27T08:37:10.689Z,51.50
2023-01-27T08:39:39.491Z,43.67
2023-01-27T08:42:07.422Z,49.47
2023-01-27T08:44:35.068Z,34.93
2023-01-27T08:47:02.546Z,40.90
2023-01-27T08:49:30.050Z,33.67
2023-01-27T08:51:57.596Z,21.10
2023-01-27T08:54:25.094Z,20.27
2023-01-27T08:56:53.895Z,25.83
2023-01-27T08:59:21.361Z,57.40
2023-01-27T09:01:48.828Z,51.97
2023-01-27T09:04:16.314Z,57.43
2023-01-27T09:06:44.033Z,55.87
2023-01-27T09:09:12.366Z,62.07
2023-01-27T09:11:43.049Z,40.23
2023-01-27T09:14:12.499Z,46.37
2023-01-27T09:16:40.050Z,50.83
2023-01-27T09:19:07.561Z,33.23
2023-01-27T09:21:35.017Z,42.70
2023-01-27T09:24:02.527Z,45.13
2023-01-27T09:26:30.124Z,48.37
2023-01-27T09:28:57.620Z,46.97
2023-01-27T09:31:26.565Z,29.37
2023-01-27T09:33:54.090Z,31.33
2023-01-27T09:36:22.514Z,35.07
2023-01-27T09:38:55.167Z,34.87
2023-01-27T09:41:37.403Z,16.00
2023-01-27T09:44:20.707Z,22.83
2023-01-27T09:47:07.286Z,15.13
2023-01-27T09:49:52.320Z,16.20
2023-01-27T09:52:47.138Z,14.23
2023-01-27T09:55:24.939Z,16.20
2023-01-27T09:58:00.167Z,15.40
2023-01-27T10:00:38.914Z,14.37
2023-01-27T10:03:23.423Z,13.17
2023-01-27T10:06:04.983Z,14.00
2023-01-27T10:08:49.889Z,12.93
2023-01-27T10:11:22.461Z,11.87
2023-01-27T10:14:06.704Z,10.57
2023-01-27T10:16:51.973Z,11.13
2023-01-27T10:19:35.565Z,10.73
2023-01-27T10:22:16.465Z,8.80
2023-01-27T10:25:03.999Z,9.00
2023-01-27T10:27:36.740Z,7.17
2023-01-27T10:30:13.949Z,9.17
2023-01-27T10:32:45.422Z,10.80
2023-01-27T10:35:19.251Z,11.27
2023-01-27T10:37:57.164Z,10.60
2023-01-27T10:40:34.895Z,11.47
2023-01-27T10:43:07.211Z,11.80
2023-01-27T10:45:39.683Z,12.47
2023-01-27T10:48:18.336Z,12.13
2023-01-27T10:50:51.492Z,9.67
2023-01-27T10:53:23.507Z,11.80
2023-01-27T10:55:59.444Z,10.40
2023-01-27T10:58:41.047Z,12.40
2023-01-27T11:01:21.030Z,12.90
2023-01-27T11:03:55.380Z,9.60
2023-01-27T11:06:26.166Z,11.57
2023-01-27T11:09:02.429Z,10.97
2023-01-27T11:11:45.359Z,11.90
2023-01-27T11:14:26.500Z,11.07
2023-01-27T11:16:59.117Z,11.13
2023-01-27T11:19:41.529Z,10.93
2023-01-27T11:22:20.616Z,12.37
2023-01-27T11:24:54.051Z,13.03
2023-01-27T11:27:30.954Z,11.30
2023-01-27T11:30:04.318Z,11.87
2023-01-27T11:32:50.059Z,11.57
2023-01-27T11:35:17.771Z,10.80
2023-01-27T11:37:48.927Z,11.67
2023-01-27T11:40:19.878Z,11.63
2023-01-27T11:42:47.670Z,11.57
2023-01-27T11:45:17.586Z,10.77
2023-01-27T11:47:46.700Z,11.83
2023-01-27T11:50:17.016Z,12.17
2023-01-27T11:52:49.080Z,11.93
2023-01-27T11:55:20.120Z,12.20
2023-01-27T11:57:52.486Z,12.80
2023-01-27T12:00:24.916Z,10.27
2023-01-27T12:03:00.388Z,11.27
2023-01-27T12:05:32.009Z,9.20
2023-01-27T12:08:03.610Z,11.33
2023-01-27T12:10:33.625Z,11.53
2023-01-27T12:13:08.256Z,9.70
2023-01-27T12:15:36.292Z,12.33
2023-01-27T12:18:09.843Z,10.40
2023-01-27T12:20:40.258Z,10.90
2023-01-27T12:23:21.134Z,9.77
2023-01-27T12:25:54.909Z,13.30
2023-01-27T12:28:27.000Z,9.63
2023-01-27T12:30:57.541Z,10.93
2023-01-27T12:33:30.036Z,10.80
2023-01-27T12:36:00.006Z,11.70
2023-01-27T12:38:35.286Z,10.27
2023-01-27T12:41:05.446Z,10.43
2023-01-27T12:43:32.975Z,11.23
2023-01-27T12:46:07.105Z,12.27
2023-01-27T12:48:36.273Z,10.47
2023-01-27T12:51:14.441Z,10.10
2023-01-27T12:53:44.205Z,9.87
2023-01-27T12:56:14.670Z,8.93
2023-01-27T12:58:44.627Z,10.30
2023-01-27T13:01:31.047Z,11.20
2023-01-27T13:04:01.833Z,10.93
2023-01-27T13:06:35.184Z,10.30
2023-01-27T13:09:04.404Z,9.80
2023-01-27T13:11:37.221Z,11.33
2023-01-27T13:14:09.102Z,11.00
2023-01-27T13:16:38.753Z,9.47
2023-01-27T13:19:17.962Z,9.13
2023-01-27T13:21:49.230Z,8.97
2023-01-27T13:24:21.906Z,10.00
2023-01-27T13:26:51.481Z,10.43
2023-01-27T13:29:25.022Z,8.80
2023-01-27T13:31:58.567Z,9.37
2023-01-27T13:34:34.281Z,8.83
2023-01-27T13:37:08.832Z,7.60
2023-01-27T13:39:54.885Z,7.40
2023-01-27T13:42:27.056Z,9.77
2023-01-27T13:45:00.988Z,8.53
2023-01-27T13:47:34.742Z,9.23
2023-01-27T13:50:09.689Z,9.63
2023-01-27T13:52:38.163Z,10.20
2023-01-27T13:55:12.781Z,8.67
2023-01-27T13:57:52.993Z,10.13
2023-01-27T14:00:23.829Z,11.90
2023-01-27T14:03:21.761Z,9.93
2023-01-27T14:06:13.030Z,10.83
2023-01-27T14:08:50.631Z,9.77
2023-01-27T14:11:29.210Z,9.57
2023-01-27T14:14:16.895Z,10.83
2023-01-27T14:17:00.175Z,10.83
2023-01-27T14:19:38.546Z,11.27
2023-01-27T14:22:13.200Z,12.67
2023-01-27T14:24:49.331Z,10.17
2023-01-27T14:27:24.262Z,9.60
2023-01-27T14:29:59.771Z,9.20
2023-01-27T14:32:33.169Z,10.30
2023-01-27T14:35:17.592Z,9.93
2023-01-27T14:37:52.522Z,9.40
2023-01-27T14:40:23.813Z,10.83
2023-01-27T14:43:05.401Z,11.80
2023-01-27T14:45:36.607Z,10.07
2023-01-27T14:48:15.614Z,9.47
2023-01-27T14:50:52.771Z,9.73
2023-01-27T14:53:35.823Z,8.17
2023-01-27T14:56:11.892Z,11.03
2023-01-27T14:58:47.491Z,10.57
2023-01-27T15:01:23.045Z,10.50
2023-01-27T15:04:16.381Z,11.90
2023-01-27T15:06:48.246Z,9.83
2023-01-27T15:09:29.041Z,9.70
2023-01-27T15:12:17.305Z,11.63
2023-01-27T15:15:16.386Z,11.63
2023-01-27T15:17:58.681Z,9.70
2023-01-27T15:20:41.241Z,11.43
2023-01-27T15:23:36.918Z,10.83
2023-01-27T15:26:07.111Z,10.60
2023-01-27T15:28:39.294Z,9.40
2023-01-27T15:31:21.417Z,11.20
2023-01-27T15:33:55.678Z,8.60
2023-01-27T15:36:34.637Z,8.40
2023-01-27T15:39:20.195Z,9.33
2023-01-27T15:41:54.512Z,9.37
2023-01-27T15:44:30.240Z,11.00
2023-01-27T15:47:07.901Z,8.90
2023-01-27T15:49:41.359Z,9.20
2023-01-27T15:52:16.121Z,10.27
2023-01-27T15:54:45.185Z,9.53
2023-01-27T15:57:26.117Z,9.07
2023-01-27T15:59:59.481Z,9.70
2023-01-27T16:02:30.491Z,8.67
2023-01-27T16:05:06.503Z,9.90
2023-01-27T16:07:36.499Z,9.67
2023-01-27T16:10:08.677Z,8.27
2023-01-27T16:12:42.424Z,9.60
2023-01-27T16:15:31.894Z,7.50
2023-01-27T16:18:19.168Z,9.03
2023-01-27T16:20:52.883Z,8.53
2023-01-27T16:23:29.767Z,8.60
2023-01-27T16:26:16.371Z,11.00
2023-01-27T16:28:47.089Z,8.97
2023-01-27T16:31:19.839Z,12.43
2023-01-27T16:33:52.675Z,8.70
2023-01-27T16:36:24.665Z,10.20
2023-01-27T16:38:53.108Z,8.47
2023-01-27T16:41:23.420Z,8.90
2023-01-27T16:43:53.109Z,7.50
2023-01-27T16:46:29.951Z,8.47
2023-01-27T16:48:58.964Z,9.73
2023-01-27T16:51:29.088Z,9.57
2023-01-27T16:53:59.052Z,8.27
2023-01-27T16:56:29.004Z,9.60
2023-01-27T16:59:01.557Z,10.10
2023-01-27T17:01:35.672Z,9.53
2023-01-27T17:04:19.251Z,12.10
2023-01-27T17:06:48.152Z,10.33
2023-01-27T17:09:24.561Z,9.97
2023-01-27T17:11:53.556Z,9.47
2023-01-27T17:14:30.296Z,8.17
2023-01-27T17:17:00.887Z,8.60
2023-01-27T17:19:32.521Z,8.90
2023-01-27T17:22:02.166Z,11.07
2023-01-27T17:24:31.811Z,9.37
2023-01-27T17:27:03.704Z,12.50
2023-01-27T17:29:36.108Z,12.47
2023-01-27T17:32:05.262Z,9.20
2023-01-27T17:34:34.459Z,9.00
2023-01-27T17:37:15.861Z,7.73
2023-01-27T17:39:44.082Z,8.33
2023-01-27T17:42:16.759Z,8.00
2023-01-27T17:44:44.618Z,8.20
2023-01-27T17:47:15.418Z,11.00
2023-01-27T17:49:46.076Z,9.43
2023-01-27T17:52:20.301Z,9.13
2023-01-27T17:54:49.248Z,9.50
2023-01-27T17:57:21.662Z,10.77
2023-01-27T17:59:57.747Z,9.70
2023-01-27T18:02:28.498Z,10.47
2023-01-27T18:05:01.236Z,10.00
2023-01-27T18:07:29.222Z,8.90
2023-01-27T18:09:57.843Z,9.73
2023-01-27T18:12:34.076Z,9.93
2023-01-27T18:15:35.117Z,10.20
2023-01-27T18:18:04.518Z,12.17
2023-01-27T18:20:36.030Z,10.23
2023-01-27T18:23:07.854Z,11.63
2023-01-27T18:25:35.353Z,11.10
2023-01-27T18:28:03.233Z,11.50
2023-01-27T18:30:30.844Z,11.53
2023-01-27T18:33:03.843Z,10.40
2023-01-27T18:35:34.874Z,10.87
2023-01-27T18:38:04.680Z,11.03
2023-01-27T18:40:33.859Z,11.30
2023-01-27T18:43:03.215Z,11.13
2023-01-27T18:45:31.138Z,10.40
2023-01-27T18:47:59.439Z,12.03
2023-01-27T18:50:28.075Z,11.13
2023-01-27T18:52:56.981Z,10.87
2023-01-27T18:55:26.355Z,10.63
2023-01-27T18:57:55.879Z,12.13
2023-01-27T19:00:25.139Z,11.90
2023-01-27T19:02:56.133Z,10.97
2023-01-27T19:05:26.501Z,11.57
2023-01-27T19:07:53.968Z,12.40
2023-01-27T19:10:25.749Z,12.23
2023-01-27T19:12:53.278Z,11.27
2023-01-27T19:15:23.705Z,12.50
2023-01-27T19:17:52.288Z,14.53
2023-01-27T19:20:22.738Z,12.03
2023-01-27T19:22:51.548Z,12.43
2023-01-27T19:25:19.096Z,17.10
2023-01-27T19:27:51.925Z,18.07
2023-01-27T19:30:26.751Z,11.70
2023-01-27T19:32:55.157Z,12.50
2023-01-27T19:35:23.580Z,12.80
2023-01-27T19:37:52.828Z,13.87
2023-01-27T19:40:22.583Z,12.57
2023-01-27T19:42:51.804Z,11.77
2023-01-27T19:45:20.805Z,25.23
2023-01-27T19:47:49.400Z,16.17
2023-01-27T19:50:19.933Z,22.60
2023-01-27T19:52:47.668Z,13.77
2023-01-27T19:55:15.751Z,16.17
2023-01-27T19:57:44.570Z,13.03
2023-01-27T20:00:23.157Z,11.30
2023-01-27T20:02:51.034Z,11.37
2023-01-27T20:05:19.070Z,12.43
2023-01-27T20:07:46.661Z,9.97
2023-01-27T20:10:18.062Z,10.93
2023-01-27T20:12:46.466Z,11.93
2023-01-27T20:15:18.189Z,11.30
2023-01-27T20:17:45.669Z,10.23
2023-01-27T20:20:14.256Z,12.00
2023-01-27T20:22:41.793Z,16.13
2023-01-27T20:25:14.364Z,12.67
2023-01-27T20:27:42.515Z,10.73
2023-01-27T20:30:15.613Z,13.07
2023-01-27T20:32:44.547Z,11.73
2023-01-27T20:35:14.378Z,11.83
2023-01-27T20:37:42.357Z,12.70
2023-01-27T20:40:14.216Z,15.90
2023-01-27T20:42:41.724Z,12.70
2023-01-27T20:45:09.989Z,9.50
2023-01-27T20:47:37.877Z,12.70
2023-01-27T20:50:08.371Z,11.47
2023-01-27T20:52:36.705Z,13.33
2023-01-27T20:55:05.008Z,11.57
2023-01-27T20:57:32.588Z,14.00
2023-01-27T21:00:00.117Z,11.03
2023-01-27T21:02:29.087Z,12.13
2023-01-27T21:04:56.775Z,12.83
2023-01-27T21:07:26.791Z,14.00
2023-01-27T21:09:54.992Z,11.60
2023-01-27T21:12:22.840Z,11.50
2023-01-27T21:14:50.292Z,12.00
2023-01-27T21:17:18.291Z,13.17
2023-01-27T21:19:45.759Z,13.67
2023-01-27T21:22:13.233Z,12.63
2023-01-27T21:24:43.101Z,11.43
2023-01-27T21:27:10.559Z,12.50
2023-01-27T21:29:38.021Z,12.67
2023-01-27T21:32:06.053Z,14.10
2023-01-27T21:34:34.521Z,11.93
2023-01-27T21:37:01.988Z,12.33
2023-01-27T21:39:29.454Z,13.57
2023-01-27T21:42:16.241Z,16.87
2023-01-27T21:45:01.720Z,13.10
2023-01-27T21:47:29.193Z,14.07
2023-01-27T21:50:02.747Z,12.13
2023-01-27T21:52:33.393Z,12.70
2023-01-27T21:55:01.903Z,11.40
2023-01-27T21:57:30.927Z,10.83
2023-01-27T21:59:59.314Z,10.10
2023-01-27T22:02:27.070Z,12.00
2023-01-27T22:04:54.559Z,13.00
2023-01-27T22:07:22.056Z,12.00
2023-01-27T22:09:49.520Z,10.47
2023-01-27T22:12:18.168Z,11.00
2023-01-27T22:14:47.049Z,11.63
2023-01-27T22:17:14.545Z,11.53
2023-01-27T22:19:42.738Z,11.47
2023-01-27T22:22:11.539Z,11.53
2023-01-27T22:24:39.040Z,11.00
2023-01-27T22:27:06.591Z,11.07
2023-01-27T22:29:34.071Z,12.47
2023-01-27T22:32:03.180Z,40.50
2023-01-27T22:34:30.720Z,57.23
2023-01-27T22:36:58.196Z,52.43
2023-01-27T22:39:25.688Z,50.17
2023-01-27T22:41:53.169Z,54.33
2023-01-27T22:44:21.166Z,47.47
2023-01-27T22:46:49.972Z,32.17
2023-01-27T22:49:18.769Z,39.73
2023-01-27T22:51:48.648Z,30.80
2023-01-27T22:54:16.289Z,25.87
2023-01-27T22:56:43.754Z,17.00
2023-01-27T22:59:12.922Z,16.67
2023-01-27T23:01:40.415Z,30.13
2023-01-27T23:04:07.894Z,49.10
2023-01-27T23:06:36.680Z,37.17
2023-01-27T23:09:04.452Z,43.63
2023-01-27T23:11:32.151Z,22.00
2023-01-27T23:13:59.609Z,14.03
2023-01-27T23:16:27.093Z,18.63
2023-01-27T23:18:54.623Z,15.83
2023-01-27T23:21:22.133Z,18.73
2023-01-27T23:23:52.078Z,24.53
2023-01-27T23:26:19.673Z,12.87
2023-01-27T23:28:47.153Z,11.77
2023-01-27T23:31:15.127Z,15.53
2023-01-27T23:33:43.894Z,15.27
2023-01-27T23:36:12.903Z,20.77
2023-01-27T23:38:40.423Z,20.00
2023-01-27T23:41:13.506Z,13.37
2023-01-27T23:43:41.069Z,19.70
2023-01-27T23:46:08.611Z,21.83
2023-01-27T23:48:36.081Z,13.03
2023-01-27T23:51:07.421Z,11.70
2023-01-27T23:53:34.890Z,13.60
2023-01-27T23:56:02.454Z,14.30
2023-01-27T23:58:31.247Z,48.00
